createdAt,value
2019-05-12T00:00:55.447Z,869.88
2019-05-12T00:01:55.440Z,869.88
2019-05-12T00:02:55.431Z,869.86
2019-05-12T00:03:57.902Z,869.88
2019-05-12T00:04:55.411Z,869.87
2019-05-12T00:05:57.306Z,869.85
2019-05-12T00:06:55.407Z,869.84
2019-05-12T00:07:55.410Z,869.85
2019-05-12T00:08:57.830Z,869.84
2019-05-12T00:09:55.399Z,869.85
2019-05-12T00:10:55.362Z,869.87
2019-05-12T00:11:55.359Z,869.81
2019-05-12T00:12:55.360Z,869.79
2019-05-12T00:13:55.342Z,869.81
2019-05-12T00:14:55.368Z,869.82
2019-05-12T00:15:55.325Z,869.80
2019-05-12T00:16:55.318Z,869.80
2019-05-12T00:17:55.304Z,869.80
2019-05-12T00:18:55.306Z,869.82
2019-05-12T00:19:55.287Z,869.82
2019-05-12T00:20:55.299Z,869.81
2019-05-12T00:21:55.277Z,869.83
2019-05-12T00:22:55.278Z,869.83
2019-05-12T00:23:55.269Z,869.83
2019-05-12T00:24:55.252Z,869.83
2019-05-12T00:25:55.263Z,869.81
2019-05-12T00:26:55.235Z,869.82
2019-05-12T00:27:55.222Z,869.80
2019-05-12T00:28:55.227Z,869.75
2019-05-12T00:29:57.722Z,869.75
2019-05-12T00:30:55.191Z,869.76
2019-05-12T00:31:55.219Z,869.73
2019-05-12T00:32:55.193Z,869.72
2019-05-12T00:33:55.172Z,869.71
2019-05-12T00:34:55.159Z,869.70
2019-05-12T00:35:55.165Z,869.69
2019-05-12T00:36:55.140Z,869.71
2019-05-12T00:37:55.145Z,869.72
2019-05-12T00:38:55.122Z,869.72
2019-05-12T00:39:55.130Z,869.69
2019-05-12T00:40:55.123Z,869.71
2019-05-12T00:41:55.117Z,869.66
2019-05-12T00:42:55.097Z,869.71
2019-05-12T00:43:55.089Z,869.66
2019-05-12T00:44:55.091Z,869.72
2019-05-12T00:45:55.069Z,869.70
2019-05-12T00:46:55.083Z,869.73
2019-05-12T00:47:55.059Z,869.75
2019-05-12T00:48:55.047Z,869.69
2019-05-12T00:49:55.055Z,869.72
2019-05-12T00:50:55.030Z,869.69
2019-05-12T00:51:55.031Z,869.63
2019-05-12T00:52:55.016Z,869.67
2019-05-12T00:53:55.012Z,869.66
2019-05-12T00:54:55.007Z,869.67
2019-05-12T00:55:54.987Z,869.72
2019-05-12T00:56:54.964Z,869.68
2019-05-12T00:57:54.956Z,869.66
2019-05-12T00:58:54.947Z,869.63
2019-05-12T00:59:54.959Z,869.64
2019-05-12T01:00:54.954Z,869.64
2019-05-12T01:01:54.929Z,869.62
2019-05-12T01:02:54.923Z,869.60
2019-05-12T01:03:54.922Z,869.59
2019-05-12T01:04:54.913Z,869.61
2019-05-12T01:05:54.912Z,869.60
2019-05-12T01:06:54.899Z,869.64
2019-05-12T01:07:54.869Z,869.64
2019-05-12T01:08:54.880Z,869.63
2019-05-12T01:09:54.874Z,869.59
2019-05-12T01:10:54.850Z,869.57
2019-05-12T01:11:54.853Z,869.59
2019-05-12T01:12:54.838Z,869.59
2019-05-12T01:13:54.819Z,869.58
2019-05-12T01:14:54.813Z,869.61
2019-05-12T01:15:54.832Z,869.60
2019-05-12T01:16:54.797Z,869.59
2019-05-12T01:17:54.788Z,869.59
2019-05-12T01:18:54.775Z,869.56
2019-05-12T01:19:54.782Z,869.54
2019-05-12T01:20:54.754Z,869.56
2019-05-12T01:21:54.745Z,869.52
2019-05-12T01:22:54.746Z,869.48
2019-05-12T01:24:00.507Z,869.50
2019-05-12T01:24:54.720Z,869.49
2019-05-12T01:25:54.724Z,869.45
2019-05-12T01:26:54.722Z,869.45
2019-05-12T01:27:54.699Z,869.43
2019-05-12T01:28:54.692Z,869.40
2019-05-12T01:29:54.682Z,869.32
2019-05-12T01:30:54.670Z,869.34
2019-05-12T01:31:54.675Z,869.31
2019-05-12T01:32:54.669Z,869.30
2019-05-12T01:33:54.650Z,869.27
2019-05-12T01:34:54.627Z,869.29
2019-05-12T01:35:55.147Z,869.26
2019-05-12T01:36:54.614Z,869.23
2019-05-12T01:37:54.627Z,869.22
2019-05-12T01:38:54.624Z,869.22
2019-05-12T01:39:54.581Z,869.21
2019-05-12T01:40:54.575Z,869.16
2019-05-12T01:41:54.586Z,869.14
2019-05-12T01:42:54.568Z,869.19
2019-05-12T01:43:54.560Z,869.21
2019-05-12T01:44:54.585Z,869.21
2019-05-12T01:45:54.541Z,869.21
2019-05-12T01:46:54.527Z,869.22
2019-05-12T01:47:54.548Z,869.15
2019-05-12T01:48:54.525Z,869.10
2019-05-12T01:49:54.510Z,869.09
2019-05-12T01:50:54.498Z,869.06
2019-05-12T01:51:54.504Z,869.04
2019-05-12T01:52:54.488Z,869.11
2019-05-12T01:54:08.609Z,869.11
2019-05-12T01:54:54.489Z,869.06
2019-05-12T01:55:54.449Z,869.05
2019-05-12T01:56:54.444Z,869.08
2019-05-12T01:57:54.435Z,869.10
2019-05-12T01:58:54.433Z,869.08
2019-05-12T01:59:54.424Z,869.07
2019-05-12T02:00:54.407Z,869.00
2019-05-12T02:01:54.405Z,869.01
2019-05-12T02:02:54.388Z,869.04
2019-05-12T02:03:54.383Z,869.01
2019-05-12T02:04:54.392Z,868.98
2019-05-12T02:05:54.369Z,868.94
2019-05-12T02:06:54.350Z,868.91
2019-05-12T02:07:54.354Z,868.87
2019-05-12T02:08:54.332Z,868.87
2019-05-12T02:09:54.332Z,868.88
2019-05-12T02:10:54.328Z,868.87
2019-05-12T02:11:54.302Z,868.80
2019-05-12T02:12:54.299Z,868.86
2019-05-12T02:13:54.300Z,868.80
2019-05-12T02:14:54.277Z,868.78
2019-05-12T02:15:54.269Z,868.77
2019-05-12T02:16:54.260Z,868.70
2019-05-12T02:17:54.258Z,868.76
2019-05-12T02:18:54.250Z,868.73
2019-05-12T02:19:54.243Z,868.73
2019-05-12T02:20:54.256Z,868.73
2019-05-12T02:21:54.232Z,868.68
2019-05-12T02:22:54.192Z,868.70
2019-05-12T02:23:54.196Z,868.69
2019-05-12T02:24:54.199Z,868.68
2019-05-12T02:25:54.187Z,868.66
2019-05-12T02:26:54.174Z,868.65
2019-05-12T02:27:54.167Z,868.63
2019-05-12T02:28:54.153Z,868.64
2019-05-12T02:29:54.149Z,868.61
2019-05-12T02:30:54.120Z,868.62
2019-05-12T02:31:54.115Z,868.59
2019-05-12T02:32:58.838Z,868.51
2019-05-12T02:33:55.056Z,868.55
2019-05-12T02:34:54.782Z,868.52
2019-05-12T02:35:54.845Z,868.55
2019-05-12T02:36:55.566Z,868.50
2019-05-12T02:37:55.083Z,868.45
2019-05-12T02:38:55.965Z,868.42
2019-05-12T02:39:55.568Z,868.40
2019-05-12T02:40:55.425Z,868.37
2019-05-12T02:41:54.274Z,868.39
2019-05-12T02:42:54.849Z,868.38
2019-05-12T02:43:55.394Z,868.39
2019-05-12T02:44:55.178Z,868.37
2019-05-12T02:45:54.719Z,868.41
2019-05-12T02:46:55.231Z,868.38
2019-05-12T02:47:54.495Z,868.36
2019-05-12T02:48:54.692Z,868.33
2019-05-12T02:49:54.534Z,868.38
2019-05-12T02:50:54.601Z,868.32
2019-05-12T02:51:54.728Z,868.29
2019-05-12T02:52:54.558Z,868.29
2019-05-12T02:53:54.574Z,868.27
2019-05-12T02:54:59.706Z,868.30
2019-05-12T02:55:54.267Z,868.29
2019-05-12T02:56:55.062Z,868.28
2019-05-12T02:57:55.084Z,868.26
2019-05-12T02:58:54.349Z,868.25
2019-05-12T02:59:54.127Z,868.22
2019-05-12T03:00:54.793Z,868.27
2019-05-12T03:01:55.029Z,868.27
2019-05-12T03:02:54.777Z,868.23
2019-05-12T03:03:54.845Z,868.17
2019-05-12T03:04:54.752Z,868.19
2019-05-12T03:05:54.919Z,868.15
2019-05-12T03:06:54.826Z,868.18
2019-05-12T03:07:55.229Z,868.13
2019-05-12T03:08:55.053Z,868.14
2019-05-12T03:09:54.994Z,868.16
2019-05-12T03:10:54.848Z,868.14
2019-05-12T03:11:55.605Z,868.13
2019-05-12T03:12:54.940Z,868.13
2019-05-12T03:13:54.825Z,868.13
2019-05-12T03:14:54.424Z,868.09
2019-05-12T03:15:54.862Z,868.06
2019-05-12T03:16:54.026Z,868.07
2019-05-12T03:17:54.582Z,868.02
2019-05-12T03:18:55.278Z,868.02
2019-05-12T03:19:55.642Z,867.99
2019-05-12T03:20:54.676Z,868.02
2019-05-12T03:21:54.752Z,868.00
2019-05-12T03:22:55.403Z,867.97
2019-05-12T03:23:55.008Z,867.93
2019-05-12T03:25:07.800Z,867.97
2019-05-12T03:25:54.637Z,867.96
2019-05-12T03:26:55.242Z,867.94
2019-05-12T03:27:54.584Z,867.96
2019-05-12T03:28:55.543Z,867.89
2019-05-12T03:29:55.236Z,867.93
2019-05-12T03:30:57.687Z,867.92
2019-05-12T03:31:56.952Z,867.85
2019-05-12T03:32:58.166Z,867.84
2019-05-12T03:33:59.603Z,867.87
2019-05-12T03:34:57.845Z,867.84
2019-05-12T03:36:00.342Z,867.85
2019-05-12T03:36:58.578Z,867.85
2019-05-12T03:37:54.741Z,867.82
2019-05-12T03:38:55.179Z,867.79
2019-05-12T03:39:54.531Z,867.78
2019-05-12T03:40:55.089Z,867.82
2019-05-12T03:41:54.648Z,867.79
2019-05-12T03:42:54.912Z,867.78
2019-05-12T03:43:54.981Z,867.76
2019-05-12T03:44:54.651Z,867.80
2019-05-12T03:45:55.804Z,867.81
2019-05-12T03:46:54.308Z,867.80
2019-05-12T03:47:54.811Z,867.79
2019-05-12T03:48:55.331Z,867.78
2019-05-12T03:49:54.414Z,867.80
2019-05-12T03:50:54.128Z,867.78
2019-05-12T03:51:54.362Z,867.70
2019-05-12T03:52:56.448Z,867.67
2019-05-12T03:53:55.627Z,867.66
2019-05-12T03:54:56.090Z,867.61
2019-05-12T03:55:55.231Z,867.61
2019-05-12T03:56:55.646Z,867.61
2019-05-12T03:57:55.143Z,867.59
2019-05-12T03:58:54.150Z,867.59
2019-05-12T03:59:54.301Z,867.60
2019-05-12T04:00:55.380Z,867.61
2019-05-12T04:01:55.117Z,867.60
2019-05-12T04:02:55.563Z,867.62
2019-05-12T04:03:54.243Z,867.58
2019-05-12T04:04:55.446Z,867.63
2019-05-12T04:05:55.323Z,867.62
2019-05-12T04:06:54.352Z,867.61
2019-05-12T04:07:54.699Z,867.55
2019-05-12T04:08:55.020Z,867.56
2019-05-12T04:09:54.625Z,867.50
2019-05-12T04:10:54.759Z,867.52
2019-05-12T04:11:54.721Z,867.48
2019-05-12T04:12:54.885Z,867.46
2019-05-12T04:13:55.042Z,867.49
2019-05-12T04:14:55.011Z,867.40
2019-05-12T04:15:55.690Z,867.36
2019-05-12T04:16:55.060Z,867.38
2019-05-12T04:17:54.371Z,867.30
2019-05-12T04:18:55.169Z,867.36
2019-05-12T04:19:54.983Z,867.36
2019-05-12T04:20:54.561Z,867.35
2019-05-12T04:21:54.728Z,867.32
2019-05-12T04:22:54.730Z,867.32
2019-05-12T04:23:54.824Z,867.38
2019-05-12T04:24:55.157Z,867.33
2019-05-12T04:26:06.557Z,867.27
2019-05-12T04:26:55.200Z,867.27
2019-05-12T04:27:54.231Z,867.25
2019-05-12T04:28:54.801Z,867.26
2019-05-12T04:29:54.723Z,867.22
2019-05-12T04:30:54.494Z,867.27
2019-05-12T04:31:54.381Z,867.24
2019-05-12T04:32:55.336Z,867.22
2019-05-12T04:33:54.721Z,867.13
2019-05-12T04:34:55.067Z,867.15
2019-05-12T04:35:55.349Z,867.14
2019-05-12T04:36:55.305Z,867.09
2019-05-12T04:37:55.371Z,867.10
2019-05-12T04:38:55.627Z,867.13
2019-05-12T04:39:55.445Z,867.07
2019-05-12T04:40:55.241Z,867.07
2019-05-12T04:41:55.131Z,867.04
2019-05-12T04:42:54.889Z,867.06
2019-05-12T04:43:55.101Z,866.99
2019-05-12T04:44:55.242Z,866.86
2019-05-12T04:45:54.891Z,866.92
2019-05-12T04:46:55.461Z,866.97
2019-05-12T04:47:55.224Z,866.93
2019-05-12T04:48:54.617Z,866.92
2019-05-12T04:49:54.664Z,866.89
2019-05-12T04:50:54.831Z,866.83
2019-05-12T04:51:54.584Z,866.86
2019-05-12T04:52:54.893Z,866.80
2019-05-12T04:53:54.884Z,866.78
2019-05-12T04:54:55.185Z,866.79
2019-05-12T04:56:09.687Z,866.74
2019-05-12T04:56:55.180Z,866.78
2019-05-12T04:57:54.577Z,866.79
2019-05-12T04:58:54.553Z,866.71
2019-05-12T04:59:54.332Z,866.67
2019-05-12T05:00:54.090Z,866.78
2019-05-12T05:01:54.066Z,866.78
2019-05-12T05:02:54.421Z,866.79
2019-05-12T05:03:54.548Z,866.75
2019-05-12T05:04:54.699Z,866.77
2019-05-12T05:05:54.904Z,866.76
2019-05-12T05:06:55.034Z,866.72
2019-05-12T05:07:54.842Z,866.68
2019-05-12T05:08:54.451Z,866.71
2019-05-12T05:09:54.929Z,866.75
2019-05-12T05:10:54.822Z,866.72
2019-05-12T05:11:54.311Z,866.67
2019-05-12T05:12:54.082Z,866.64
2019-05-12T05:13:54.804Z,866.62
2019-05-12T05:14:54.833Z,866.63
2019-05-12T05:15:54.909Z,866.57
2019-05-12T05:16:54.269Z,866.62
2019-05-12T05:17:54.534Z,866.58
2019-05-12T05:18:54.310Z,866.56
2019-05-12T05:19:53.335Z,866.46
2019-05-12T05:20:54.147Z,866.53
2019-05-12T05:21:54.199Z,866.52
2019-05-12T05:22:54.251Z,866.49
2019-05-12T05:23:53.670Z,866.54
2019-05-12T05:24:53.610Z,866.48
2019-05-12T05:25:53.868Z,866.45
2019-05-12T05:26:53.961Z,866.39
2019-05-12T05:27:53.296Z,866.45
2019-05-12T05:28:54.271Z,866.37
2019-05-12T05:29:54.363Z,866.40
2019-05-12T05:30:53.463Z,866.39
2019-05-12T05:31:53.382Z,866.41
2019-05-12T05:32:53.547Z,866.36
2019-05-12T05:33:53.630Z,866.36
2019-05-12T05:34:57.574Z,866.33
2019-05-12T05:35:54.314Z,866.34
2019-05-12T05:36:57.343Z,866.26
2019-05-12T05:37:54.003Z,866.23
2019-05-12T05:38:59.681Z,866.19
2019-05-12T05:39:53.968Z,866.17
2019-05-12T05:40:54.104Z,866.19
2019-05-12T05:41:53.771Z,866.11
2019-05-12T05:42:54.158Z,866.05
2019-05-12T05:43:56.391Z,866.06
2019-05-12T05:44:54.360Z,866.03
2019-05-12T05:45:56.094Z,866.05
2019-05-12T05:46:54.546Z,866.03
2019-05-12T05:47:54.286Z,866.02
2019-05-12T05:48:54.130Z,865.99
2019-05-12T05:49:54.006Z,866.03
2019-05-12T05:50:54.075Z,865.97
2019-05-12T05:51:56.783Z,865.91
2019-05-12T05:52:54.098Z,865.92
2019-05-12T05:53:54.031Z,865.84
2019-05-12T05:54:53.200Z,865.83
2019-05-12T05:55:56.202Z,865.87
2019-05-12T05:56:59.535Z,865.92
2019-05-12T05:57:53.489Z,865.94
2019-05-12T05:58:54.553Z,865.90
2019-05-12T05:59:53.788Z,865.87
2019-05-12T06:00:57.100Z,865.92
2019-05-12T06:01:54.765Z,865.92
2019-05-12T06:02:54.438Z,865.88
2019-05-12T06:03:53.229Z,865.95
2019-05-12T06:04:55.824Z,865.90
2019-05-12T06:05:53.416Z,865.87
2019-05-12T06:06:55.716Z,865.85
2019-05-12T06:07:53.578Z,865.82
2019-05-12T06:08:51.967Z,865.83
2019-05-12T06:09:53.667Z,865.79
2019-05-12T06:10:53.854Z,865.77
2019-05-12T06:11:54.044Z,865.75
2019-05-12T06:12:54.117Z,865.71
2019-05-12T06:13:53.440Z,865.70
2019-05-12T06:14:55.296Z,865.67
2019-05-12T06:15:53.725Z,865.61
2019-05-12T06:16:53.763Z,865.65
2019-05-12T06:17:53.519Z,865.62
2019-05-12T06:18:54.307Z,865.62
2019-05-12T06:19:53.833Z,865.59
2019-05-12T06:20:53.992Z,865.56
2019-05-12T06:21:53.373Z,865.52
2019-05-12T06:22:54.436Z,865.53
2019-05-12T06:23:53.968Z,865.55
2019-05-12T06:24:54.814Z,865.52
2019-05-12T06:25:52.650Z,865.51
2019-05-12T06:26:59.971Z,865.57
2019-05-12T06:28:00.075Z,865.52
2019-05-12T06:28:54.172Z,865.53
2019-05-12T06:30:00.415Z,865.55
2019-05-12T06:30:51.742Z,865.54
2019-05-12T06:31:51.719Z,865.54
2019-05-12T06:32:52.427Z,865.55
2019-05-12T06:33:53.628Z,865.50
2019-05-12T06:34:56.989Z,865.43
2019-05-12T06:35:54.206Z,865.38
2019-05-12T06:36:56.484Z,865.38
2019-05-12T06:38:00.201Z,865.33
2019-05-12T06:38:53.957Z,865.33
2019-05-12T06:39:56.500Z,865.33
2019-05-12T06:40:51.634Z,865.27
2019-05-12T06:42:11.627Z,865.28
2019-05-12T06:42:54.163Z,865.33
2019-05-12T06:43:53.940Z,865.32
2019-05-12T06:44:54.897Z,865.33
2019-05-12T06:45:51.577Z,865.22
2019-05-12T06:46:53.413Z,865.20
2019-05-12T06:47:54.051Z,865.18
2019-05-12T06:48:51.559Z,865.14
2019-05-12T06:49:54.783Z,865.14
2019-05-12T06:50:53.404Z,865.19
2019-05-12T06:51:53.667Z,865.22
2019-05-12T06:52:53.134Z,865.17
2019-05-12T06:53:53.457Z,865.23
2019-05-12T06:54:56.575Z,865.22
2019-05-12T06:55:53.863Z,865.23
2019-05-12T06:56:57.885Z,865.17
2019-05-12T06:57:51.459Z,865.17
2019-05-12T06:58:53.412Z,865.15
2019-05-12T06:59:53.123Z,865.11
2019-05-12T07:00:51.416Z,865.07
2019-05-12T07:01:56.118Z,865.08
2019-05-12T07:02:54.735Z,865.06
2019-05-12T07:03:53.276Z,865.07
2019-05-12T07:04:57.305Z,865.09
2019-05-12T07:05:53.369Z,865.05
2019-05-12T07:06:56.349Z,865.09
2019-05-12T07:07:53.303Z,865.02
2019-05-12T07:09:02.562Z,865.00
2019-05-12T07:09:54.964Z,865.02
2019-05-12T07:11:00.856Z,864.98
2019-05-12T07:11:58.832Z,864.96
2019-05-12T07:12:58.922Z,864.94
2019-05-12T07:14:03.989Z,864.97
2019-05-12T07:14:57.134Z,864.95
2019-05-12T07:15:51.281Z,864.91
2019-05-12T07:16:55.274Z,864.87
2019-05-12T07:17:53.364Z,864.81
2019-05-12T07:18:53.718Z,864.78
2019-05-12T07:19:54.839Z,864.78
2019-05-12T07:20:53.572Z,864.85
2019-05-12T07:21:58.789Z,864.87
2019-05-12T07:22:51.192Z,864.88
2019-05-12T07:23:53.355Z,864.85
2019-05-12T07:24:52.779Z,864.89
2019-05-12T07:25:51.148Z,864.84
2019-05-12T07:26:54.715Z,864.83
2019-05-12T07:27:55.167Z,864.73
2019-05-12T07:28:51.132Z,864.80
2019-05-12T07:29:51.125Z,864.79
2019-05-12T07:30:51.139Z,864.77
2019-05-12T07:31:53.518Z,864.79
2019-05-12T07:32:56.046Z,864.77
2019-05-12T07:33:54.022Z,864.82
2019-05-12T07:34:51.060Z,864.82
2019-05-12T07:35:53.253Z,864.79
2019-05-12T07:36:51.054Z,864.79
2019-05-12T07:37:51.032Z,864.82
2019-05-12T07:38:58.072Z,864.78
2019-05-12T07:39:51.021Z,864.75
2019-05-12T07:40:51.006Z,864.67
2019-05-12T07:41:52.169Z,864.63
2019-05-12T07:42:50.990Z,864.68
2019-05-12T07:43:56.738Z,864.68
2019-05-12T07:44:50.969Z,864.62
2019-05-12T07:45:56.606Z,864.65
2019-05-12T07:46:50.935Z,864.63
2019-05-12T07:47:53.984Z,864.66
2019-05-12T07:48:51.077Z,864.69
2019-05-12T07:49:50.906Z,864.64
2019-05-12T07:50:56.479Z,864.62
2019-05-12T07:51:50.893Z,864.66
2019-05-12T07:52:50.864Z,864.62
2019-05-12T07:54:08.250Z,864.59
2019-05-12T07:54:53.732Z,864.62
2019-05-12T07:55:58.508Z,864.60
2019-05-12T07:56:50.841Z,864.57
2019-05-12T07:57:55.410Z,864.56
2019-05-12T07:58:56.504Z,864.47
2019-05-12T07:59:51.295Z,864.51
2019-05-12T08:00:53.991Z,864.58
2019-05-12T08:01:54.309Z,864.55
2019-05-12T08:02:50.770Z,864.51
2019-05-12T08:03:51.033Z,864.47
2019-05-12T08:04:50.760Z,864.45
2019-05-12T08:05:51.440Z,864.42
2019-05-12T08:06:53.663Z,864.48
2019-05-12T08:07:50.712Z,864.42
2019-05-12T08:08:58.165Z,864.41
2019-05-12T08:09:50.690Z,864.48
2019-05-12T08:10:53.542Z,864.41
2019-05-12T08:11:50.672Z,864.46
2019-05-12T08:12:51.152Z,864.47
2019-05-12T08:13:50.649Z,864.46
2019-05-12T08:14:51.448Z,864.44
2019-05-12T08:15:55.610Z,864.41
2019-05-12T08:16:50.627Z,864.38
2019-05-12T08:17:57.747Z,864.38
2019-05-12T08:18:50.601Z,864.34
2019-05-12T08:19:50.593Z,864.36
2019-05-12T08:20:50.592Z,864.36
2019-05-12T08:21:50.580Z,864.44
2019-05-12T08:22:50.551Z,864.46
2019-05-12T08:23:50.552Z,864.48
2019-05-12T08:24:50.551Z,864.43
2019-05-12T08:25:50.522Z,864.37
2019-05-12T08:26:58.817Z,864.40
2019-05-12T08:27:52.036Z,864.40
2019-05-12T08:28:50.487Z,864.36
2019-05-12T08:29:54.489Z,864.35
2019-05-12T08:30:52.157Z,864.25
2019-05-12T08:31:50.447Z,864.22
2019-05-12T08:32:54.508Z,864.19
2019-05-12T08:33:50.436Z,864.17
2019-05-12T08:34:50.438Z,864.13
2019-05-12T08:35:50.412Z,864.21
2019-05-12T08:36:53.060Z,864.20
2019-05-12T08:37:50.407Z,864.15
2019-05-12T08:38:50.402Z,864.19
2019-05-12T08:39:53.335Z,864.19
2019-05-12T08:40:51.263Z,864.24
2019-05-12T08:41:50.352Z,864.14
2019-05-12T08:42:50.331Z,864.21
2019-05-12T08:43:54.900Z,864.14
2019-05-12T08:44:50.312Z,864.15
2019-05-12T08:45:50.305Z,864.10
2019-05-12T08:46:52.228Z,864.07
2019-05-12T08:47:50.291Z,864.06
2019-05-12T08:48:51.439Z,864.07
2019-05-12T08:49:56.001Z,864.07
2019-05-12T08:50:50.261Z,864.08
2019-05-12T08:51:55.784Z,864.01
2019-05-12T08:52:50.240Z,864.06
2019-05-12T08:53:56.207Z,864.10
2019-05-12T08:54:50.213Z,864.05
2019-05-12T08:55:50.220Z,864.08
2019-05-12T08:56:51.172Z,864.05
2019-05-12T08:57:50.181Z,864.06
2019-05-12T08:58:51.415Z,864.03
2019-05-12T08:59:54.600Z,864.02
2019-05-12T09:00:50.658Z,863.95
2019-05-12T09:01:50.130Z,863.86
2019-05-12T09:02:50.642Z,863.97
2019-05-12T09:03:50.106Z,863.96
2019-05-12T09:04:51.756Z,863.94
2019-05-12T09:05:50.111Z,863.95
2019-05-12T09:06:54.842Z,863.89
2019-05-12T09:07:50.060Z,863.90
2019-05-12T09:08:50.082Z,863.88
2019-05-12T09:09:50.049Z,863.88
2019-05-12T09:10:52.195Z,863.89
2019-05-12T09:11:51.183Z,863.90
2019-05-12T09:12:50.616Z,863.93
2019-05-12T09:15:23.964Z,863.82
2019-05-12T09:16:24.431Z,863.87
2019-05-12T09:18:18.790Z,863.87
2019-05-12T09:19:23.502Z,863.88
2019-05-12T09:21:08.503Z,863.86
2019-05-12T09:22:16.444Z,863.81
2019-05-12T09:24:00.588Z,863.81
2019-05-12T09:25:06.260Z,863.80
2019-05-12T09:26:59.028Z,863.76
2019-05-12T09:27:54.321Z,863.73
2019-05-12T09:29:47.286Z,863.72
2019-05-12T09:30:49.411Z,863.67
2019-05-12T09:32:48.606Z,863.68
2019-05-12T09:33:40.590Z,863.70
2019-05-12T09:35:40.035Z,863.70
2019-05-12T09:36:35.556Z,863.70
2019-05-12T09:38:27.238Z,863.68
2019-05-12T09:39:27.135Z,863.73
2019-05-12T09:41:20.480Z,863.68
2019-05-12T09:42:25.572Z,863.68
2019-05-12T09:44:13.986Z,863.68
2019-05-12T09:45:13.948Z,863.64
2019-05-12T09:47:12.921Z,863.65
2019-05-12T09:48:09.313Z,863.61
2019-05-12T09:50:00.845Z,863.62
2019-05-12T09:51:02.020Z,863.63
2019-05-12T09:52:55.420Z,863.62
2019-05-12T09:53:55.359Z,863.60
2019-05-12T09:55:45.591Z,863.56
2019-05-12T09:56:49.796Z,863.52
2019-05-12T09:58:38.765Z,863.48
2019-05-12T09:59:38.734Z,863.48
2019-05-12T10:01:35.251Z,863.45
2019-05-12T10:02:31.307Z,863.48
2019-05-12T10:04:24.394Z,863.46
2019-05-12T10:05:24.361Z,863.41
2019-05-12T10:07:16.983Z,863.36
2019-05-12T10:08:16.707Z,863.36
2019-05-12T10:10:09.069Z,863.37
2019-05-12T10:11:10.239Z,863.36
2019-05-12T10:13:04.656Z,863.31
2019-05-12T10:14:06.597Z,863.30
2019-05-12T10:15:58.760Z,863.31
2019-05-12T10:16:55.713Z,863.36
2019-05-12T10:18:51.293Z,863.35
2019-05-12T10:19:48.505Z,863.38
2019-05-12T10:21:41.384Z,863.32
2019-05-12T10:22:43.512Z,863.26
2019-05-12T10:24:41.403Z,863.27
2019-05-12T10:25:34.705Z,863.28
2019-05-12T10:27:31.888Z,863.26
2019-05-12T10:28:28.027Z,863.26
2019-05-12T10:30:23.321Z,863.26
2019-05-12T10:31:21.376Z,863.29
2019-05-12T10:33:13.988Z,863.30
2019-05-12T10:34:14.026Z,863.31
2019-05-12T10:36:08.501Z,863.31
2019-05-12T10:37:06.380Z,863.31
2019-05-12T10:38:58.693Z,863.31
2019-05-12T10:39:58.323Z,863.24
2019-05-12T10:41:51.522Z,863.25
2019-05-12T10:44:04.099Z,863.22
2019-05-12T10:45:04.251Z,863.22
2019-05-12T10:46:55.568Z,863.23
2019-05-12T10:47:55.350Z,863.22
2019-05-12T10:49:47.680Z,863.20
2019-05-12T10:50:47.652Z,863.20
2019-05-12T10:52:40.195Z,863.24
2019-05-12T10:53:40.363Z,863.22
2019-05-12T10:55:33.571Z,863.20
2019-05-12T10:56:34.645Z,863.21
2019-05-12T10:58:25.518Z,863.21
2019-05-12T10:59:32.133Z,863.21
2019-05-12T11:01:16.486Z,863.20
2019-05-12T11:02:20.593Z,863.21
2019-05-12T11:04:08.933Z,863.19
2019-05-12T11:05:12.373Z,863.21
2019-05-12T11:07:01.122Z,863.14
2019-05-12T11:08:06.390Z,863.17
2019-05-12T11:09:54.455Z,863.19
2019-05-12T11:10:59.270Z,863.19
2019-05-12T11:12:45.758Z,863.17
2019-05-12T11:13:49.941Z,863.19
2019-05-12T11:15:39.651Z,863.16
2019-05-12T11:16:38.056Z,863.14
2019-05-12T11:18:31.367Z,863.10
2019-05-12T11:19:30.757Z,863.15
2019-05-12T11:21:22.927Z,863.12
2019-05-12T11:22:22.739Z,863.12
2019-05-12T11:24:15.525Z,863.16
2019-05-12T11:25:15.040Z,863.11
2019-05-12T11:27:08.611Z,863.14
2019-05-12T11:28:08.410Z,863.13
2019-05-12T11:30:04.073Z,863.11
2019-05-12T11:31:01.751Z,863.15
2019-05-12T11:32:54.364Z,863.13
2019-05-12T11:33:54.259Z,863.11
2019-05-12T11:35:47.388Z,863.11
2019-05-12T11:36:47.390Z,863.10
2019-05-12T11:38:40.582Z,863.09
2019-05-12T11:39:44.603Z,863.10
2019-05-12T11:41:33.671Z,863.03
2019-05-12T11:42:33.743Z,863.06
2019-05-12T11:44:28.263Z,863.06
2019-05-12T11:45:27.974Z,863.08
2019-05-12T11:47:24.204Z,863.05
2019-05-12T11:48:20.319Z,863.06
2019-05-12T11:50:13.196Z,863.04
2019-05-12T11:51:14.425Z,863.01
2019-05-12T11:53:04.988Z,863.01
2019-05-12T11:54:08.869Z,863.05
2019-05-12T11:56:02.348Z,863.01
2019-05-12T11:56:58.321Z,863.03
2019-05-12T11:58:54.081Z,863.01
2019-05-12T11:59:59.195Z,863.02
2019-05-12T12:01:49.403Z,863.02
2019-05-12T12:02:44.975Z,862.99
2019-05-12T12:04:37.300Z,863.02
2019-05-12T12:05:38.320Z,863.01
2019-05-12T12:07:29.887Z,863.00
2019-05-12T12:08:33.697Z,862.97
2019-05-12T12:10:23.420Z,862.90
2019-05-12T12:11:27.085Z,862.96
2019-05-12T12:13:19.162Z,862.91
2019-05-12T12:14:14.668Z,862.89
2019-05-12T12:16:11.216Z,862.92
2019-05-12T12:17:07.007Z,862.92
2019-05-12T12:19:02.691Z,862.93
2019-05-12T12:19:59.319Z,862.95
2019-05-12T12:21:53.223Z,862.96
2019-05-12T12:22:51.267Z,862.96
2019-05-12T12:24:43.718Z,862.97
2019-05-12T12:25:48.547Z,862.93
2019-05-12T12:27:36.944Z,862.93
2019-05-12T12:28:36.929Z,862.96
2019-05-12T12:30:33.683Z,862.95
2019-05-12T12:31:37.311Z,862.96
2019-05-12T12:33:24.590Z,862.91
2019-05-12T12:34:29.841Z,862.96
2019-05-12T12:36:17.019Z,862.95
2019-05-12T12:37:19.028Z,862.93
2019-05-12T12:39:09.228Z,862.94
2019-05-12T12:40:09.199Z,862.94
2019-05-12T12:42:04.383Z,862.99
2019-05-12T12:43:03.863Z,863.01
2019-05-12T12:44:58.656Z,862.99
2019-05-12T12:45:54.873Z,863.01
2019-05-12T12:47:49.261Z,862.99
2019-05-12T12:48:48.236Z,863.02
2019-05-12T12:50:40.579Z,863.00
2019-05-12T12:51:40.551Z,862.97
2019-05-12T12:52:44.892Z,862.98
2019-05-12T12:53:40.528Z,863.01
2019-05-12T12:54:40.517Z,862.98
2019-05-12T12:55:43.526Z,862.96
2019-05-12T12:56:40.496Z,862.98
2019-05-12T12:57:46.508Z,862.98
2019-05-12T12:58:40.475Z,862.97
2019-05-12T12:59:45.366Z,862.96
2019-05-12T13:00:47.345Z,863.02
2019-05-12T13:01:40.439Z,863.03
2019-05-12T13:02:45.064Z,863.04
2019-05-12T13:03:40.409Z,863.00
2019-05-12T13:04:45.959Z,863.04
2019-05-12T13:05:40.402Z,863.00
2019-05-12T13:06:40.386Z,863.01
2019-05-12T13:07:40.376Z,863.05
2019-05-12T13:08:40.365Z,863.01
2019-05-12T13:09:40.344Z,863.03
2019-05-12T13:10:45.747Z,863.02
2019-05-12T13:11:40.326Z,863.01
2019-05-12T13:12:40.308Z,863.05
2019-05-12T13:13:40.307Z,863.03
2019-05-12T13:14:40.313Z,863.06
2019-05-12T13:15:40.299Z,863.03
2019-05-12T13:16:40.280Z,863.02
2019-05-12T13:17:41.922Z,863.01
2019-05-12T13:18:40.262Z,863.00
2019-05-12T13:19:40.250Z,863.01
2019-05-12T13:20:40.232Z,863.04
2019-05-12T13:21:40.209Z,863.03
2019-05-12T13:22:40.214Z,863.03
2019-05-12T13:23:41.347Z,863.01
2019-05-12T13:24:40.187Z,863.04
2019-05-12T13:25:48.372Z,863.04
2019-05-12T13:26:40.174Z,863.03
2019-05-12T13:27:40.165Z,863.05
2019-05-12T13:28:44.845Z,863.08
2019-05-12T13:29:40.149Z,863.08
2019-05-12T13:30:46.209Z,863.08
2019-05-12T13:31:41.106Z,863.07
2019-05-12T13:32:40.088Z,863.13
2019-05-12T13:33:40.099Z,863.13
2019-05-12T13:34:40.089Z,863.17
2019-05-12T13:35:40.059Z,863.17
2019-05-12T13:36:40.052Z,863.19